Time;durP1;ratioP1;P1;durP2;ratioP2;P2;SDS_P1;SDS_P2;PMS_P1;PMS_P2;Temp;Humidity;BMP_temperature;BMP_pressure;BME280_temperature;BME280_humidity;BME280_pressure;Samples;Min_cycle;Max_cycle;Signal;HPM_P1;HPM_P2
2022/05/15 00:02:12;;;;;;;8.68;3.45;;;16.60;99.90;;;;;;5051261;28;20071;-76
2022/05/15 00:04:38;;;;;;;11.63;4.18;;;16.50;99.90;;;;;;5053173;28;20025;-76
2022/05/15 00:07:05;;;;;;;8.23;3.42;;;16.50;99.90;;;;;;5052960;28;20044;-76
2022/05/15 00:09:31;;;;;;;7.50;3.72;;;16.40;99.90;;;;;;5053291;28;20029;-76
2022/05/15 00:11:57;;;;;;;7.70;3.38;;;16.40;99.90;;;;;;5052755;28;20020;-77
2022/05/15 00:14:23;;;;;;;7.90;3.83;;;16.40;99.90;;;;;;5051604;28;20070;-76
2022/05/15 00:16:49;;;;;;;10.80;5.03;;;16.30;99.90;;;;;;5053089;28;20511;-75
2022/05/15 00:19:15;;;;;;;9.88;3.53;;;16.30;99.90;;;;;;5052976;28;20017;-75
2022/05/15 00:21:40;;;;;;;6.35;2.95;;;16.30;99.90;;;;;;5052494;28;20021;-76
2022/05/15 00:24:07;;;;;;;8.98;5.20;;;16.20;99.90;;;;;;5053005;28;20082;-75
2022/05/15 00:26:33;;;;;;;11.10;3.33;;;16.20;99.90;;;;;;5053165;28;20024;-75
2022/05/15 00:29:00;;;;;;;9.10;3.63;;;16.20;99.90;;;;;;5051212;28;20468;-77
2022/05/15 00:31:27;;;;;;;12.90;3.33;;;16.20;99.90;;;;;;5052807;28;20047;-78
2022/05/15 00:33:52;;;;;;;5.50;3.20;;;16.20;99.90;;;;;;5052802;28;20115;-76
2022/05/15 00:36:18;;;;;;;9.27;3.58;;;16.10;99.90;;;;;;5052474;28;20084;-76
2022/05/15 00:38:44;;;;;;;6.10;3.50;;;16.10;99.90;;;;;;5050692;28;20021;-76
2022/05/15 00:41:11;;;;;;;7.00;4.05;;;16.10;99.90;;;;;;5051356;28;20152;-76
2022/05/15 00:43:45;;;;;;;9.45;4.00;;;16.00;99.90;;;;;;5048162;28;20095;-76
2022/05/15 00:46:28;;;;;;;5.15;3.78;;;16.00;99.90;;;;;;5052675;28;20038;-77
2022/05/15 00:48:56;;;;;;;11.00;3.80;;;16.00;99.90;;;;;;5052569;28;20025;-76
2022/05/15 00:51:29;;;;;;;9.15;4.18;;;15.90;99.90;;;;;;5052354;28;20070;-75
2022/05/15 00:54:03;;;;;;;16.30;4.40;;;15.80;99.90;;;;;;5052258;28;20087;-74
2022/05/15 00:56:33;;;;;;;10.30;3.80;;;15.80;99.90;;;;;;5052430;28;20163;-76
2022/05/15 00:59:03;;;;;;;8.60;3.80;;;15.80;99.90;;;;;;5050170;28;20021;-77
2022/05/15 01:01:29;;;;;;;11.30;4.60;;;15.80;99.90;;;;;;5052707;28;20021;-77
2022/05/15 01:03:55;;;;;;;10.20;3.80;;;15.80;99.90;;;;;;5052397;28;20040;-76
2022/05/15 01:06:21;;;;;;;7.18;3.65;;;15.70;99.90;;;;;;5051010;28;20478;-78
2022/05/15 01:08:47;;;;;;;9.90;4.00;;;15.60;99.90;;;;;;5052414;28;20017;-75
2022/05/15 01:11:17;;;;;;;9.70;3.80;;;15.60;99.90;;;;;;5051716;28;20410;-76
2022/05/15 01:13:45;;;;;;;15.18;3.53;;;15.60;99.90;;;;;;5050911;28;20016;-75
2022/05/15 01:16:12;;;;;;;11.27;4.03;;;15.60;99.90;;;;;;5052112;28;20044;-76
2022/05/15 01:18:39;;;;;;;10.18;3.40;;;15.60;99.90;;;;;;5052127;28;20028;-75
2022/05/15 01:21:23;;;;;;;7.05;3.90;;;15.60;99.90;;;;;;5052388;28;20163;-76
2022/05/15 01:23:50;;;;;;;8.35;3.78;;;15.50;99.90;;;;;;5050000;28;20036;-77
2022/05/15 01:26:16;;;;;;;6.65;3.47;;;15.50;99.90;;;;;;5049220;28;20017;-75
2022/05/15 01:28:45;;;;;;;8.43;3.85;;;15.50;99.90;;;;;;5052043;28;20367;-76
2022/05/15 01:31:12;;;;;;;11.30;3.60;;;15.40;99.90;;;;;;5051699;28;21191;-74
2022/05/15 01:33:38;;;;;;;8.25;3.55;;;15.40;99.90;;;;;;5049981;28;20329;-75
2022/05/15 01:36:06;;;;;;;6.40;3.78;;;15.30;99.90;;;;;;5052174;28;20031;-76
2022/05/15 01:38:32;;;;;;;15.57;4.05;;;15.30;99.90;;;;;;5051521;28;20116;-76
2022/05/15 01:40:58;;;;;;;14.32;3.92;;;15.20;99.90;;;;;;5051811;28;20020;-76
2022/05/15 01:43:23;;;;;;;9.27;3.45;;;15.20;99.90;;;;;;5051895;28;20017;-75
2022/05/15 01:45:49;;;;;;;12.07;3.97;;;15.20;99.90;;;;;;5051852;28;20032;-75
2022/05/15 01:48:15;;;;;;;10.88;3.38;;;15.20;99.90;;;;;;5051567;28;20448;-75
2022/05/15 01:50:41;;;;;;;10.02;3.88;;;15.10;99.90;;;;;;5051686;28;20063;-75
2022/05/15 01:53:07;;;;;;;10.43;3.63;;;15.10;99.90;;;;;;5051485;28;20073;-76
2022/05/15 01:55:32;;;;;;;8.07;3.90;;;15.10;99.90;;;;;;5053972;28;20041;-75
2022/05/15 01:57:58;;;;;;;12.00;4.75;;;15.00;99.90;;;;;;5055463;28;20043;-77
2022/05/15 02:00:26;;;;;;;7.57;3.95;;;15.00;99.90;;;;;;5055489;28;20021;-77
2022/05/15 02:02:52;;;;;;;6.28;3.45;;;14.90;99.90;;;;;;5055175;28;20423;-76
2022/05/15 02:05:19;;;;;;;9.15;3.90;;;14.90;99.90;;;;;;5055354;28;20017;-75
2022/05/15 02:07:47;;;;;;;8.20;3.65;;;14.90;99.90;;;;;;5055109;28;20055;-76
2022/05/15 02:10:13;;;;;;;10.18;4.60;;;14.80;99.90;;;;;;5055297;28;20096;-74
2022/05/15 02:12:39;;;;;;;7.80;3.70;;;14.80;99.90;;;;;;5054252;28;20017;-75
2022/05/15 02:15:05;;;;;;;10.75;4.45;;;14.80;99.90;;;;;;5053964;28;20466;-75
2022/05/15 02:17:32;;;;;;;7.43;3.80;;;14.80;99.90;;;;;;5054818;28;20072;-75
2022/05/15 02:19:59;;;;;;;10.20;4.10;;;14.70;99.90;;;;;;5055061;28;20017;-76
2022/05/15 02:22:25;;;;;;;12.98;4.60;;;14.70;99.90;;;;;;5055141;28;20051;-76
2022/05/15 02:24:51;;;;;;;11.52;4.43;;;14.70;99.90;;;;;;5055790;28;20402;-76
2022/05/15 02:27:16;;;;;;;7.00;3.83;;;14.60;99.90;;;;;;5056306;28;20029;-78
2022/05/15 02:29:42;;;;;;;11.10;4.22;;;14.60;99.90;;;;;;5056151;28;20033;-76
2022/05/15 02:32:08;;;;;;;6.43;3.65;;;14.60;99.90;;;;;;5056048;28;20142;-76
2022/05/15 02:34:34;;;;;;;11.05;3.90;;;14.60;99.90;;;;;;5055983;28;20025;-74
2022/05/15 02:37:00;;;;;;;8.13;3.63;;;14.50;99.90;;;;;;5055298;28;20379;-77
2022/05/15 02:39:26;;;;;;;10.13;3.58;;;14.50;99.90;;;;;;5055386;28;20032;-76
2022/05/15 02:41:52;;;;;;;15.40;4.13;;;14.50;99.90;;;;;;5055099;28;20092;-75
2022/05/15 02:44:18;;;;;;;8.85;4.18;;;14.50;99.90;;;;;;5054994;28;20108;-75
2022/05/15 02:46:44;;;;;;;9.20;3.97;;;14.50;99.90;;;;;;5055266;28;20091;-74
2022/05/15 02:51:54;;;;;;;11.35;4.18;;;14.50;99.90;;;;;;5055100;28;20036;-75
2022/05/15 02:54:20;;;;;;;7.40;3.70;;;14.50;99.90;;;;;;5054965;28;20033;-75
2022/05/15 02:56:46;;;;;;;8.93;3.90;;;14.50;99.90;;;;;;5054855;28;20367;-76
2022/05/15 02:59:12;;;;;;;10.80;4.25;;;14.50;99.90;;;;;;5054720;28;20029;-77
2022/05/15 03:01:37;;;;;;;8.90;3.65;;;14.40;99.90;;;;;;5054827;28;20134;-76
2022/05/15 03:04:04;;;;;;;12.10;4.28;;;14.40;99.90;;;;;;5054733;28;20029;-75
2022/05/15 03:06:30;;;;;;;9.80;4.28;;;14.40;99.90;;;;;;5054169;28;20024;-78
2022/05/15 03:08:57;;;;;;;8.35;4.18;;;14.40;99.90;;;;;;5055073;28;20427;-76
2022/05/15 03:11:23;;;;;;;16.02;4.55;;;14.40;99.90;;;;;;5054589;28;20029;-78
2022/05/15 03:13:49;;;;;;;7.22;3.40;;;14.30;99.90;;;;;;5054729;28;20019;-75
2022/05/15 03:16:17;;;;;;;12.80;3.67;;;14.30;99.90;;;;;;5054141;28;20025;-76
2022/05/15 03:18:49;;;;;;;8.50;4.07;;;14.40;99.90;;;;;;5054449;28;20541;-77
2022/05/15 03:21:29;;;;;;;9.38;4.45;;;14.40;99.90;;;;;;5054555;28;20052;-75
2022/05/15 03:23:59;;;;;;;12.45;4.20;;;14.50;99.90;;;;;;5054418;28;20103;-75
2022/05/15 03:26:26;;;;;;;12.32;4.60;;;14.40;99.90;;;;;;5054193;28;20033;-74
2022/05/15 03:28:52;;;;;;;10.15;4.55;;;14.40;99.90;;;;;;5054291;28;20023;-75
2022/05/15 03:31:19;;;;;;;13.70;4.70;;;14.50;99.90;;;;;;5052921;28;20470;-74
2022/05/15 03:33:46;;;;;;;14.63;4.85;;;14.50;99.90;;;;;;5054390;28;20033;-74
2022/05/15 03:36:12;;;;;;;10.68;4.55;;;14.40;99.90;;;;;;5054035;28;20447;-75
2022/05/15 03:38:39;;;;;;;12.82;4.68;;;14.50;99.90;;;;;;5053860;28;20076;-76
2022/05/15 03:41:05;;;;;;;8.15;5.03;;;14.40;99.90;;;;;;5054205;28;20052;-76
2022/05/15 03:43:31;;;;;;;10.35;5.13;;;14.40;99.90;;;;;;5054742;28;20108;-77
2022/05/15 03:45:57;;;;;;;15.30;5.40;;;14.40;99.90;;;;;;5054883;28;20108;-75
2022/05/15 03:48:23;;;;;;;9.10;5.47;;;14.40;99.90;;;;;;5055104;28;20032;-75
2022/05/15 03:50:48;;;;;;;15.90;6.25;;;14.40;99.90;;;;;;5054793;28;20021;-75
2022/05/15 03:53:14;;;;;;;12.68;5.53;;;14.40;99.90;;;;;;5054713;28;20017;-76
2022/05/15 03:55:40;;;;;;;8.52;4.90;;;14.40;99.90;;;;;;5054425;28;20423;-76
2022/05/15 03:58:06;;;;;;;11.65;5.20;;;14.30;99.90;;;;;;5054872;28;20025;-75
2022/05/15 04:00:31;;;;;;;11.10;5.57;;;14.40;99.90;;;;;;5054624;28;20456;-78
2022/05/15 04:02:57;;;;;;;8.68;5.15;;;14.50;99.90;;;;;;5054966;28;20384;-77
2022/05/15 04:05:23;;;;;;;10.48;4.72;;;14.50;99.90;;;;;;5054506;28;20021;-75
2022/05/15 04:07:50;;;;;;;11.80;5.00;;;14.50;99.90;;;;;;5054412;28;20513;-75
2022/05/15 04:10:19;;;;;;;10.82;4.82;;;14.60;99.90;;;;;;5054276;28;20048;-77
2022/05/15 04:12:45;;;;;;;12.65;4.75;;;14.60;99.90;;;;;;5054346;28;20029;-76
2022/05/15 04:15:12;;;;;;;11.85;4.80;;;14.70;99.90;;;;;;5053146;28;20033;-77
2022/05/15 04:17:49;;;;;;;11.90;5.88;;;14.80;99.90;;;;;;5053733;28;20059;-76
2022/05/15 04:20:18;;;;;;;9.88;6.35;;;14.90;99.90;;;;;;5054595;28;20024;-75
2022/05/15 04:22:44;;;;;;;14.23;6.28;;;14.90;99.90;;;;;;5054340;28;20019;-74
2022/05/15 04:25:11;;;;;;;15.40;6.35;;;15.00;99.90;;;;;;5054356;28;20021;-75
2022/05/15 04:27:38;;;;;;;11.82;6.40;;;15.00;99.90;;;;;;5054247;28;20032;-77
2022/05/15 04:30:05;;;;;;;11.95;6.57;;;15.10;99.90;;;;;;5053914;28;20021;-76
2022/05/15 04:32:31;;;;;;;16.10;7.28;;;15.10;99.90;;;;;;5054485;28;20056;-74
2022/05/15 04:34:56;;;;;;;11.13;6.97;;;15.20;99.90;;;;;;5053985;28;20021;-74
2022/05/15 04:37:22;;;;;;;17.23;8.25;;;15.30;99.90;;;;;;5053892;28;20375;-75
2022/05/15 04:39:48;;;;;;;18.50;10.00;;;15.40;99.90;;;;;;5053883;28;20459;-74
2022/05/15 04:42:14;;;;;;;31.73;11.23;;;15.50;99.90;;;;;;5053653;28;20021;-75
2022/05/15 04:44:40;;;;;;;17.95;10.45;;;15.60;99.90;;;;;;5053985;28;20032;-76
2022/05/15 04:47:05;;;;;;;28.95;14.38;;;15.70;99.90;;;;;;5054068;28;20029;-76
2022/05/15 04:49:31;;;;;;;29.10;15.52;;;15.70;99.90;;;;;;5053561;28;20025;-74
2022/05/15 04:51:57;;;;;;;29.60;13.73;;;15.80;99.90;;;;;;5053546;28;20017;-74
2022/05/15 04:54:24;;;;;;;21.05;9.30;;;15.90;99.90;;;;;;5053593;28;20028;-75
2022/05/15 04:56:49;;;;;;;19.20;6.60;;;15.90;99.90;;;;;;5054069;28;20029;-76
2022/05/15 04:59:15;;;;;;;14.93;6.50;;;15.90;99.90;;;;;;5053755;28;20366;-75
2022/05/15 05:01:41;;;;;;;20.85;7.13;;;16.00;99.90;;;;;;5053669;28;20043;-74
2022/05/15 05:04:07;;;;;;;13.85;6.43;;;16.10;99.90;;;;;;5054000;28;20101;-75
2022/05/15 05:06:33;;;;;;;19.17;6.22;;;16.10;99.90;;;;;;5053880;28;20112;-73
2022/05/15 05:08:59;;;;;;;16.08;6.45;;;16.10;99.90;;;;;;5053599;28;20060;-76
2022/05/15 05:11:24;;;;;;;20.65;6.70;;;16.20;99.90;;;;;;5053691;28;20055;-74
2022/05/15 05:13:50;;;;;;;18.17;6.47;;;16.20;99.90;;;;;;5053526;28;20116;-75
2022/05/15 05:16:16;;;;;;;17.98;6.47;;;16.30;99.90;;;;;;5053095;28;20024;-74
2022/05/15 05:18:42;;;;;;;12.63;4.93;;;16.40;99.90;;;;;;5053580;28;20021;-76
2022/05/15 05:21:07;;;;;;;11.13;5.03;;;16.60;99.90;;;;;;5053468;28;20021;-74
2022/05/15 05:23:33;;;;;;;9.65;5.53;;;16.70;99.90;;;;;;5053442;28;20021;-77
2022/05/15 05:25:59;;;;;;;14.68;5.50;;;16.70;99.90;;;;;;5053504;28;20063;-74
2022/05/15 05:28:26;;;;;;;15.48;5.85;;;16.80;99.90;;;;;;5054985;28;20057;-74
2022/05/15 05:30:52;;;;;;;17.33;5.85;;;16.90;99.90;;;;;;5057217;28;20021;-75
2022/05/15 05:33:18;;;;;;;13.88;6.25;;;17.00;99.90;;;;;;5057804;28;20066;-75
2022/05/15 05:35:44;;;;;;;14.60;5.70;;;17.10;99.90;;;;;;5057609;28;20104;-74
2022/05/15 05:38:10;;;;;;;13.75;5.72;;;17.20;99.90;;;;;;5057031;28;20021;-74
2022/05/15 05:40:36;;;;;;;10.57;4.80;;;17.30;99.90;;;;;;5057401;28;20017;-74
2022/05/15 05:43:02;;;;;;;10.27;4.88;;;17.40;99.90;;;;;;5057153;28;20364;-75
2022/05/15 05:45:28;;;;;;;10.10;4.70;;;17.50;99.90;;;;;;5057523;28;20021;-73
2022/05/15 05:47:55;;;;;;;11.07;4.85;;;17.60;99.90;;;;;;5057104;28;20060;-75
2022/05/15 05:50:24;;;;;;;11.38;4.00;;;17.70;99.90;;;;;;5057379;28;20107;-75
2022/05/15 05:52:50;;;;;;;15.68;5.85;;;17.90;99.90;;;;;;5056125;28;20083;-74
2022/05/15 05:55:17;;;;;;;11.63;5.13;;;18.00;99.90;;;;;;5055677;28;20411;-77
2022/05/15 05:57:44;;;;;;;10.18;4.13;;;18.20;99.90;;;;;;5056904;28;20474;-75
2022/05/15 06:00:23;;;;;;;12.13;3.83;;;18.30;99.90;;;;;;5056981;28;20029;-75
2022/05/15 06:02:49;;;;;;;11.20;4.20;;;18.40;99.90;;;;;;5057193;28;20047;-74
2022/05/15 06:05:15;;;;;;;12.27;3.45;;;18.50;99.90;;;;;;5056805;28;20436;-73
2022/05/15 06:07:42;;;;;;;12.43;3.55;;;18.60;99.90;;;;;;5056884;28;20020;-75
2022/05/15 06:10:10;;;;;;;15.00;3.67;;;18.70;99.90;;;;;;5056684;28;20075;-75
2022/05/15 06:12:36;;;;;;;9.15;3.90;;;18.80;99.90;;;;;;5056485;28;20364;-75
2022/05/15 06:15:02;;;;;;;11.05;4.55;;;19.00;99.90;;;;;;5054703;28;20029;-76
2022/05/15 06:17:29;;;;;;;11.20;4.72;;;19.10;99.90;;;;;;5053686;28;20025;-75
2022/05/15 06:19:56;;;;;;;8.40;4.03;;;19.30;99.90;;;;;;5055462;28;20547;-75
2022/05/15 06:22:22;;;;;;;12.70;4.53;;;19.30;99.10;;;;;;5054257;28;20017;-73
2022/05/15 06:24:48;;;;;;;11.90;4.20;;;19.50;97.80;;;;;;5055331;28;20021;-76
2022/05/15 06:27:14;;;;;;;10.32;3.97;;;19.60;98.80;;;;;;5055515;28;20451;-75
2022/05/15 06:29:41;;;;;;;11.55;4.45;;;19.80;96.50;;;;;;5056330;28;20463;-75
2022/05/15 06:32:08;;;;;;;9.60;4.85;;;19.90;95.60;;;;;;5056568;28;20064;-75
2022/05/15 06:34:35;;;;;;;11.98;4.30;;;20.10;95.10;;;;;;5056311;28;20024;-74
2022/05/15 06:37:01;;;;;;;12.63;4.63;;;20.20;93.80;;;;;;5056300;28;20025;-74
2022/05/15 06:39:26;;;;;;;10.88;4.47;;;20.30;91.90;;;;;;5055933;28;20107;-75
2022/05/15 06:41:56;;;;;;;10.00;4.90;;;20.40;93.50;;;;;;5055894;28;20075;-75
2022/05/15 06:44:22;;;;;;;10.73;4.97;;;20.50;90.10;;;;;;5056188;28;20047;-74
2022/05/15 06:46:48;;;;;;;13.00;5.97;;;20.60;85.10;;;;;;5056107;28;20418;-76
2022/05/15 06:49:14;;;;;;;13.82;5.88;;;20.70;86.60;;;;;;5056392;28;20096;-75
2022/05/15 06:51:41;;;;;;;16.85;6.35;;;20.90;90.70;;;;;;5056197;28;20025;-73
2022/05/15 06:54:07;;;;;;;19.25;7.25;;;21.00;87.70;;;;;;5056180;28;20053;-75
2022/05/15 06:59:18;;;;;;;15.98;5.72;;;21.30;85.30;;;;;;5056080;28;20035;-76
2022/05/15 07:01:43;;;;;;;14.05;4.57;;;21.40;81.90;;;;;;5055463;28;20021;-76
2022/05/15 07:04:09;;;;;;;8.50;3.70;;;21.50;87.20;;;;;;5055777;28;20028;-75
2022/05/15 07:06:35;;;;;;;10.05;3.85;;;21.70;79.50;;;;;;5055572;28;20025;-74
2022/05/15 07:09:01;;;;;;;11.38;3.90;;;21.80;76.40;;;;;;5055590;28;20108;-74
2022/05/15 07:11:27;;;;;;;11.40;4.47;;;21.90;71.90;;;;;;5055526;28;20029;-74
2022/05/15 07:13:53;;;;;;;7.05;3.38;;;22.00;71.40;;;;;;5056138;28;20083;-76
2022/05/15 07:16:19;;;;;;;7.70;3.80;;;22.10;70.20;;;;;;5055384;28;20029;-74
2022/05/15 07:18:44;;;;;;;9.68;3.80;;;22.20;70.40;;;;;;5055273;28;20025;-75
2022/05/15 07:21:10;;;;;;;14.70;4.28;;;22.40;69.30;;;;;;5055097;28;20108;-74
2022/05/15 07:23:36;;;;;;;9.20;3.97;;;22.50;68.80;;;;;;5055855;28;20067;-75
2022/05/15 07:26:03;;;;;;;6.50;4.00;;;22.50;68.60;;;;;;5055407;28;20032;-77
2022/05/15 07:28:29;;;;;;;9.48;4.10;;;22.70;63.10;;;;;;5054989;28;20409;-75
2022/05/15 07:30:55;;;;;;;11.82;3.75;;;22.70;59.00;;;;;;5055631;28;20021;-76
2022/05/15 07:33:23;;;;;;;7.57;3.60;;;22.80;62.90;;;;;;5055276;28;20047;-75
2022/05/15 07:35:49;;;;;;;16.75;3.70;;;22.90;61.70;;;;;;5055419;28;20025;-75
2022/05/15 07:38:15;;;;;;;12.27;4.63;;;23.10;63.20;;;;;;5054892;28;20052;-75
2022/05/15 07:40:42;;;;;;;8.50;4.55;;;23.20;63.30;;;;;;5055014;28;20019;-75
2022/05/15 07:43:10;;;;;;;8.65;3.80;;;23.10;59.00;;;;;;5054910;28;20016;-76
2022/05/15 07:45:36;;;;;;;9.98;4.15;;;23.20;60.20;;;;;;5054832;28;20475;-75
2022/05/15 07:48:03;;;;;;;10.65;4.15;;;23.20;58.90;;;;;;5055070;28;20021;-75
2022/05/15 07:50:29;;;;;;;7.85;4.57;;;23.40;59.20;;;;;;5054769;28;20025;-73
2022/05/15 07:52:55;;;;;;;8.25;4.18;;;23.60;60.20;;;;;;5054856;28;20067;-74
2022/05/15 07:55:20;;;;;;;11.05;4.38;;;23.70;57.10;;;;;;5054445;28;20045;-75
2022/05/15 07:57:46;;;;;;;10.55;4.32;;;23.70;56.60;;;;;;5054290;28;20079;-76
2022/05/15 08:00:14;;;;;;;9.82;4.55;;;23.80;58.10;;;;;;5053994;28;20013;-76
2022/05/15 08:02:41;;;;;;;9.57;4.25;;;23.90;57.10;;;;;;5054243;28;20032;-74
2022/05/15 08:08:02;;;;;;;6.45;3.60;;;;;;;;;;5054322;28;20043;-75
2022/05/15 08:10:33;;;;;;;9.18;4.70;;;24.20;52.70;;;;;;5054516;28;20025;-75
2022/05/15 08:13:00;;;;;;;8.93;4.00;;;24.20;56.60;;;;;;5054352;28;20514;-75
2022/05/15 08:15:26;;;;;;;9.98;4.07;;;24.30;52.10;;;;;;5054480;28;20025;-75
2022/05/15 08:17:53;;;;;;;9.68;4.28;;;24.40;53.20;;;;;;5054065;28;20033;-77
2022/05/15 08:25:49;;;;;;;8.52;3.85;;;;;;;;;;5054201;28;20028;-75
2022/05/15 08:28:16;;;;;;;8.23;3.95;;;;;;;;;;5054246;28;20025;-74
2022/05/15 08:30:42;;;;;;;10.73;3.90;;;;;;;;;;5054591;28;20100;-74
2022/05/15 08:33:09;;;;;;;9.00;3.35;;;;;;;;;;5053756;28;20410;-74
2022/05/15 08:35:36;;;;;;;6.15;3.20;;;;;;;;;;5054061;28;20021;-75
2022/05/15 08:38:02;;;;;;;8.80;2.60;;;;;;;;;;5053902;28;20028;-75
2022/05/15 08:40:38;;;;;;;13.98;3.78;;;;;;;;;;5054242;28;20024;-74
2022/05/15 08:43:05;;;;;;;8.05;2.90;;;;;;;;;;5054070;28;20020;-74
2022/05/15 08:45:32;;;;;;;12.95;3.13;;;;;;;;;;5053593;28;20013;-75
2022/05/15 08:48:12;;;;;;;8.50;3.35;;;;;;;;;;5053771;28;20023;-73
2022/05/15 08:50:49;;;;;;;6.97;3.33;;;;;;;;;;5054084;28;20024;-75
2022/05/15 08:53:22;;;;;;;9.13;2.83;;;;;;;;;;5053805;28;20040;-76
2022/05/15 08:55:50;;;;;;;7.55;3.00;;;;;;;;;;5053922;28;20048;-74
2022/05/15 08:58:22;;;;;;;13.52;3.25;;;;;;;;;;5053937;28;20017;-74
2022/05/15 09:00:50;;;;;;;9.52;3.70;;;;;;;;;;5053756;28;20360;-75
2022/05/15 09:03:18;;;;;;;7.70;3.17;;;;;;;;;;5053331;28;20051;-74
2022/05/15 09:06:03;;;;;;;7.82;2.72;;;;;;;;;;5052575;28;20464;-75
2022/05/15 09:08:44;;;;;;;7.35;2.60;;;;;;;;;;5053221;28;20020;-74
2022/05/15 09:11:10;;;;;;;10.73;3.45;;;;;;;;;;5053687;28;20023;-74
2022/05/15 09:13:36;;;;;;;6.82;3.20;;;;;;;;;;5053810;28;20017;-75
2022/05/15 09:16:04;;;;;;;8.65;2.95;;;;;;;;;;5053599;28;20017;-75
2022/05/15 09:18:34;;;;;;;10.38;3.63;;;;;;;;;;5053376;28;20391;-75
2022/05/15 09:21:03;;;;;;;10.23;3.05;;;;;;;;;;5053506;28;20013;-75
2022/05/15 09:23:34;;;;;;;5.75;3.58;;;;;;;;;;5053276;28;20024;-75
2022/05/15 09:26:06;;;;;;;10.25;3.75;;;;;;;;;;5053816;28;20471;-75
2022/05/15 09:28:41;;;;;;;4.85;3.65;;;;;;;;;;5053103;28;20039;-75
2022/05/15 09:31:19;;;;;;;5.25;3.28;;;;;;;;;;5053524;28;20074;-74
2022/05/15 09:34:05;;;;;;;6.25;3.33;;;;;;;;;;5053356;28;20024;-74
2022/05/15 09:36:33;;;;;;;6.25;3.13;;;;;;;;;;5053352;28;20021;-74
2022/05/15 09:39:18;;;;;;;6.60;3.50;;;;;;;;;;5053575;28;20036;-75
2022/05/15 09:44:36;;;;;;;5.63;2.75;;;;;;;;;;5053261;28;20043;-75
2022/05/15 09:47:14;;;;;;;6.22;2.85;;;;;;;;;;5052754;28;20363;-75
2022/05/15 09:49:40;;;;;;;6.13;2.70;;;;;;;;;;5053005;28;20013;-75
2022/05/15 09:52:12;;;;;;;5.45;2.55;;;;;;;;;;5053253;28;20525;-74
2022/05/15 09:54:38;;;;;;;7.22;2.75;;;;;;;;;;5053163;28;20067;-75
2022/05/15 09:57:10;;;;;;;5.38;3.80;;;;;;;;;;5052753;28;20025;-75
2022/05/15 09:59:36;;;;;;;10.23;3.60;;;;;;;;;;5052397;28;20356;-75
2022/05/15 10:02:02;;;;;;;6.38;3.38;;;;;;;;;;5053574;28;20017;-75
2022/05/15 10:04:33;;;;;;;7.90;3.53;;;;;;;;;;5053085;28;20017;-77
2022/05/15 10:06:59;;;;;;;7.33;3.50;;;;;;;;;;5051062;28;20553;-75
2022/05/15 10:09:28;;;;;;;6.55;3.72;;;;;;;;;;5052799;28;20048;-75
2022/05/15 10:12:00;;;;;;;8.00;3.40;;;;;;;;;;5052500;28;20096;-75
2022/05/15 10:14:30;;;;;;;6.13;3.67;;;;;;;;;;5049158;28;20475;-77
2022/05/15 10:16:58;;;;;;;10.70;3.83;;;;;;;;;;5054772;28;20024;-77
2022/05/15 10:19:33;;;;;;;9.77;3.90;;;;;;;;;;5055328;28;20499;-75
2022/05/15 10:22:15;;;;;;;8.05;3.40;;;;;;;;;;5055308;28;20016;-76
2022/05/15 10:24:44;;;;;;;5.38;3.47;;;;;;;;;;5055068;28;20016;-77
2022/05/15 10:27:16;;;;;;;8.65;3.85;;;;;;;;;;5054826;28;20021;-74
2022/05/15 10:29:45;;;;;;;5.05;3.33;;;;;;;;;;5054993;28;20021;-76
2022/05/15 10:32:20;;;;;;;8.23;3.42;;;;;;;;;;5054959;28;20032;-77
2022/05/15 10:34:46;;;;;;;4.65;3.30;;;;;;;;;;5052461;28;20043;-76
2022/05/15 10:37:18;;;;;;;8.50;3.97;;;;;;;;;;5054841;28;20017;-77
2022/05/15 10:40:03;;;;;;;4.07;3.53;;;;;;;;;;5052255;28;20025;-75
2022/05/15 10:42:37;;;;;;;4.50;3.05;;;;;;;;;;5053259;28;20012;-74
2022/05/15 10:45:19;;;;;;;5.85;3.30;;;;;;;;;;5054429;28;20020;-74
2022/05/15 10:47:51;;;;;;;13.27;3.70;;;;;;;;;;5052096;28;20027;-74
2022/05/15 10:50:25;;;;;;;6.32;3.05;;;;;;;;;;5054534;28;20452;-74
2022/05/15 10:57:21;;;;;;;5.20;3.20;;;;;;;;;;5051582;28;20328;-73
2022/05/15 10:58:47;;;;;;;6.10;3.50;;;;;;;;;;5052897;28;20088;-75
2022/05/15 11:01:25;;;;;;;7.68;3.45;;;;;;;;;;5055168;28;20006;-74
2022/05/15 11:03:59;;;;;;;9.07;3.70;;;;;;;;;;5054473;28;20013;-74
2022/05/15 11:06:31;;;;;;;5.93;3.45;;;;;;;;;;5055784;28;20462;-77
2022/05/15 11:09:00;;;;;;;9.35;3.20;;;;;;;;;;5055490;28;20463;-74
2022/05/15 11:11:26;;;;;;;5.70;3.17;;;;;;;;;;5055911;28;20025;-74
2022/05/15 11:14:18;;;;;;;7.07;3.20;;;;;;;;;;5055341;28;20021;-74
2022/05/15 11:17:07;;;;;;;5.47;4.30;;;;;;;;;;5033351;28;20033;-75
2022/05/15 11:19:34;;;;;;;8.65;4.82;;;;;;;;;;5015146;28;20107;-74
2022/05/15 11:22:03;;;;;;;6.93;4.95;;;;;;;;;;5033424;28;20028;-73
2022/05/15 11:24:49;;;;;;;6.10;4.25;;;;;;;;;;5016646;28;20017;-74
2022/05/15 11:27:35;;;;;;;5.03;4.63;;;;;;;;;;5025804;28;20038;-74
2022/05/15 11:30:04;;;;;;;13.60;5.68;;;;;;;;;;5026202;28;20476;-73
2022/05/15 11:32:34;;;;;;;7.30;5.10;;;;;;;;;;5033237;28;20051;-73
2022/05/15 11:35:06;;;;;;;5.22;4.68;;;;;;;;;;5032906;28;20033;-75
2022/05/15 11:37:38;;;;;;;11.75;4.75;;;;;;;;;;5032980;28;20416;-75
2022/05/15 11:40:09;;;;;;;6.57;5.90;;;;;;;;;;5016364;28;20361;-75
2022/05/15 11:42:35;;;;;;;6.25;5.30;;;;;;;;;;5033166;28;20024;-74
2022/05/15 11:45:20;;;;;;;7.47;5.45;;;;;;;;;;5032819;28;20531;-74
2022/05/15 11:48:01;;;;;;;7.18;5.15;;;;;;;;;;5031943;28;20033;-75
2022/05/15 11:50:30;;;;;;;7.32;5.70;;;;;;;;;;5032552;28;20021;-76
2022/05/15 11:52:56;;;;;;;6.30;5.60;;;;;;;;;;5018204;28;20032;-76
2022/05/15 11:55:41;;;;;;;6.85;5.05;;;;;;;;;;5034444;28;20045;-74
2022/05/15 11:58:17;;;;;;;6.45;5.07;;;;;;;;;;5034537;28;20101;-74
2022/05/15 12:00:43;;;;;;;8.88;5.65;;;;;;;;;;5035042;28;20029;-76
2022/05/15 12:03:28;;;;;;;16.08;7.13;;;;;;;;;;5034733;28;20009;-76
2022/05/15 12:06:16;;;;;;;10.57;6.63;;;;;;;;;;5034560;28;20363;-76
2022/05/15 12:08:42;;;;;;;11.40;5.97;;;;;;;;;;5034829;28;20041;-75
2022/05/15 12:11:31;;;;;;;11.77;6.18;;;;;;;;;;5034313;28;20017;-75
2022/05/15 12:13:59;;;;;;;6.50;5.80;;;;;;;;;;5033436;28;20021;-75
2022/05/15 12:16:32;;;;;;;6.00;5.40;;;;;;;;;;5034403;28;20072;-75
2022/05/15 12:19:21;;;;;;;5.90;5.32;;;;;;;;;;5044977;28;20017;-75
2022/05/15 12:21:50;;;;;;;10.07;6.00;;;;;;;;;;5052963;28;20013;-79
2022/05/15 12:24:29;;;;;;;7.97;6.40;;;;;;;;;;5053505;28;20096;-75
2022/05/15 12:26:55;;;;;;;8.52;6.72;;;;;;;;;;5053094;28;20043;-75
2022/05/15 12:29:26;;;;;;;7.75;5.95;;;;;;;;;;5053461;28;20066;-75
2022/05/15 12:31:54;;;;;;;10.57;5.65;;;;;;;;;;5053013;28;20013;-75
2022/05/15 12:34:22;;;;;;;9.50;5.80;;;;;;;;;;5053508;28;20031;-73
2022/05/15 12:36:53;;;;;;;6.85;5.72;;;;;;;;;;5053363;28;20516;-74
2022/05/15 12:39:24;;;;;;;8.43;6.73;;;;;;;;;;5051522;28;20029;-74
2022/05/15 12:41:51;;;;;;;7.07;6.38;;;;;;;;;;5052304;28;20709;-74
2022/05/15 12:44:28;;;;;;;10.48;6.53;;;;;;;;;;5053198;28;20024;-75
2022/05/15 12:46:54;;;;;;;6.70;5.70;;;;;;;;;;5052472;28;20524;-75
2022/05/15 12:49:31;;;;;;;9.32;5.90;;;;;;;;;;5052792;28;20019;-74
2022/05/15 12:52:18;;;;;;;11.95;6.65;;;;;;;;;;5052306;28;20022;-74
2022/05/15 12:54:46;;;;;;;6.43;5.82;;;;;;;;;;5052885;28;20132;-74
2022/05/15 12:57:14;;;;;;;8.63;7.03;;;;;;;;;;5052862;28;20017;-73
2022/05/15 12:59:43;;;;;;;7.63;6.95;;;;;;;;;;5052961;28;20041;-75
2022/05/15 13:02:29;;;;;;;6.72;6.13;;;;;;;;;;5052739;28;20371;-73
2022/05/15 13:04:56;;;;;;;8.02;6.50;;;;;;;;;;5052841;28;20016;-74
2022/05/15 13:07:24;;;;;;;9.05;6.30;;;;;;;;;;5052876;28;20554;-73
2022/05/15 13:10:08;;;;;;;9.85;5.55;;;;;;;;;;5053034;28;20017;-73
2022/05/15 13:12:35;;;;;;;6.90;5.93;;;;;;;;;;5051618;28;20027;-73
2022/05/15 13:15:03;;;;;;;8.85;6.65;;;;;;;;;;5052866;28;20024;-74
2022/05/15 13:17:34;;;;;;;6.65;6.10;;;;;;;;;;5052723;28;20014;-75
2022/05/15 13:20:04;;;;;;;8.73;7.00;;;;;;;;;;5053060;28;20098;-73
2022/05/15 13:22:33;;;;;;;7.15;6.45;;;;;;;;;;5052745;28;20017;-74
2022/05/15 13:25:22;;;;;;;8.32;5.57;;;;;;;;;;5052782;28;20048;-75
2022/05/15 13:27:49;;;;;;;12.32;6.38;;;;;;;;;;5029896;28;20049;-75
2022/05/15 13:30:19;;;;;;;6.80;4.97;;;;;;;;;;5030565;28;20092;-74
2022/05/15 13:32:45;;;;;;;7.97;5.07;;;;;;;;;;5030457;28;20034;-74
2022/05/15 13:35:13;;;;;;;6.90;5.35;;;;;;;;;;5030147;28;20333;-74
2022/05/15 13:37:42;;;;;;;8.05;5.40;;;;;;;;;;5030157;28;20032;-75
2022/05/15 13:43:22;;;;;;;7.18;5.60;;;;;;;;;;5007837;28;20116;-74
2022/05/15 13:45:52;;;;;;;10.10;5.22;;;;;;;;;;5030346;28;20796;-75
2022/05/15 13:48:19;;;;;;;9.27;5.15;;;;;;;;;;5029815;28;20025;-74
2022/05/15 13:50:45;;;;;;;6.63;5.90;;;;;;;;;;5032963;28;20013;-75
2022/05/15 13:53:30;;;;;;;12.38;6.07;;;;;;;;;;5033440;28;20061;-74
2022/05/15 13:56:08;;;;;;;6.57;5.35;;;;;;;;;;5016696;28;20037;-75